Terminal Aerodrome Forecast
Issued by NWS Memphis, TN

Home | Current Version | Previous Version | Text Only | Print | Product List | Glossary On
Versions: 1 2 3 4 5 6 7 8 9 10 11 12 13 14 15 16 17
000
FTUS44 KMEG 271120
TAFMKL
TAF
KMKL 271120Z 2712/2812 32006KT P6SM SCT050
      TEMPO 2712/2714 BKN050
     FM271400 34010KT P6SM SCT030 OVC050
      TEMPO 2715/2718 BKN030 OVC050
     FM271800 34010KT P6SM OVC030
     FM280000 36004KT P6SM SCT030 BKN050
     FM280300 05003KT P6SM SKC=

USA.gov is the U.S. government's official web portal to all federal, state and local government web resources and services.